Time;durP1;ratioP1;P1;durP2;ratioP2;P2;SDS_P1;SDS_P2;PMS_P1;PMS_P2;Temp;Humidity;BMP_temperature;BMP_pressure;BME280_temperature;BME280_humidity;BME280_pressure;Samples;Min_cycle;Max_cycle;Signal;HPM_P1;HPM_P2
2023/05/12 00:00:27;;;;;;;0.50;0.50;;;;;;;9.66;100.00;96587.84;29395;295;63009;-56
2023/05/12 00:00:58;;;;;;;0.50;0.50;;;;;;;9.67;100.00;96596.75;29395;227;63004;-56
2023/05/12 00:01:30;;;;;;;0.50;0.50;;;;;;;9.68;100.00;96587.53;29395;272;63008;-56
2023/05/12 00:02:01;;;;;;;0.50;0.50;;;;;;;9.67;100.00;96591.34;29395;197;63010;-56
2023/05/12 00:02:33;;;;;;;0.50;0.50;;;;;;;9.65;100.00;96588.94;29394;270;64014;-56
2023/05/12 00:03:04;;;;;;;0.50;0.50;;;;;;;9.66;100.00;96592.44;29395;212;63005;-56
2023/05/12 00:03:35;;;;;;;0.50;0.50;;;;;;;9.66;100.00;96589.72;29395;310;63009;-56
2023/05/12 00:04:07;;;;;;;0.50;0.50;;;;;;;9.65;100.00;96588.13;29395;230;63005;-56
2023/05/12 00:04:39;;;;;;;0.50;0.50;;;;;;;9.65;100.00;96585.41;29395;357;63009;-56
2023/05/12 00:05:10;;;;;;;0.50;0.50;;;;;;;9.65;100.00;96583.50;29395;252;63005;-56
2023/05/12 00:05:41;;;;;;;0.50;0.50;;;;;;;9.65;100.00;96593.53;29395;233;63009;-57
2023/05/12 00:06:13;;;;;;;0.50;0.50;;;;;;;9.66;100.00;96584.31;29395;202;63004;-56
2023/05/12 00:06:44;;;;;;;0.50;0.50;;;;;;;9.65;100.00;96588.13;29395;402;63009;-56
2023/05/12 00:07:15;;;;;;;0.50;0.50;;;;;;;9.65;100.00;96588.13;29394;202;64009;-56
2023/05/12 00:07:46;;;;;;;0.85;0.85;;;;;;;9.65;100.00;96588.13;29395;256;63009;-56
2023/05/12 00:08:18;;;;;;;0.43;0.43;;;;;;;9.65;100.00;96588.13;29395;240;63010;-57
2023/05/12 00:08:50;;;;;;;0.50;0.50;;;;;;;9.65;100.00;96588.13;29395;271;63013;-56
2023/05/12 00:09:22;;;;;;;0.50;0.50;;;;;;;9.64;100.00;96581.09;29395;311;63005;-56
2023/05/12 00:09:53;;;;;;;0.50;0.50;;;;;;;9.65;100.00;96586.22;29395;438;63009;-56
2023/05/12 00:10:27;;;;;;;0.50;0.50;;;;;;;9.66;100.00;96584.31;29395;402;63005;-56
2023/05/12 00:11:00;;;;;;;0.50;0.50;;;;;;;9.65;100.00;96583.50;29395;427;63009;-56
2023/05/12 00:11:31;;;;;;;0.50;0.50;;;;;;;9.66;100.00;96585.13;29395;222;63005;-56
2023/05/12 00:12:03;;;;;;;0.50;0.50;;;;;;;9.66;100.00;96584.31;29394;307;64013;-55
2023/05/12 00:12:35;;;;;;;0.50;0.50;;;;;;;9.66;100.00;96578.91;29395;242;63005;-56
2023/05/12 00:13:07;;;;;;;0.50;0.50;;;;;;;9.66;100.00;96577.00;29395;390;63009;-56
2023/05/12 00:13:39;;;;;;;0.50;0.50;;;;;;;9.67;100.00;96580.50;29395;281;63004;-56
2023/05/12 00:14:10;;;;;;;0.50;0.50;;;;;;;9.67;100.00;96580.50;29395;216;63009;-56
2023/05/12 00:14:42;;;;;;;0.50;0.50;;;;;;;9.67;100.00;96580.50;29394;328;64009;-56
2023/05/12 00:15:13;;;;;;;1.30;1.30;;;;;;;9.67;100.00;96577.81;29395;232;63009;-56
2023/05/12 00:15:44;;;;;;;0.50;0.50;;;;;;;9.67;100.00;96578.59;29395;270;63004;-57
2023/05/12 00:16:17;;;;;;;0.50;0.50;;;;;;;9.67;100.00;96580.50;29395;273;63008;-56
2023/05/12 00:16:50;;;;;;;0.50;0.50;;;;;;;9.65;100.00;96571.87;29395;251;63005;-56
2023/05/12 00:17:22;;;;;;;0.50;0.50;;;;;;;9.66;100.00;96584.31;29395;205;63018;-57
2023/05/12 00:17:53;;;;;;;0.50;0.50;;;;;;;9.66;100.00;96584.31;29395;230;63005;-56
2023/05/12 00:18:27;;;;;;;0.50;0.50;;;;;;;9.66;100.00;96578.91;29394;314;64013;-56
2023/05/12 00:18:58;;;;;;;0.50;0.50;;;;;;;9.66;100.00;96573.47;29395;240;63005;-56
2023/05/12 00:19:30;;;;;;;0.50;0.50;;;;;;;9.66;100.00;96573.47;29395;246;63009;-56
2023/05/12 00:20:02;;;;;;;0.50;0.50;;;;;;;9.65;100.00;96569.97;29395;256;63005;-56
2023/05/12 00:20:34;;;;;;;0.50;0.50;;;;;;;9.67;100.00;96575.09;29395;256;63009;-56
2023/05/12 00:21:07;;;;;;;0.50;0.50;;;;;;;9.66;100.00;96574.28;29395;331;63004;-56
2023/05/12 00:21:40;;;;;;;0.50;0.50;;;;;;;9.67;100.00;96575.09;29395;453;63009;-55
2023/05/12 00:22:12;;;;;;;0.50;0.50;;;;;;;9.67;100.00;96572.38;29395;202;63004;-56
2023/05/12 00:22:43;;;;;;;0.50;0.50;;;;;;;9.66;100.00;96568.06;29395;477;63009;-57
2023/05/12 00:23:14;;;;;;;0.50;0.50;;;;;;;9.66;100.00;96568.06;29395;291;63004;-56
2023/05/12 00:23:45;;;;;;;0.50;0.50;;;;;;;9.65;100.00;96572.69;29394;221;64013;-56
2023/05/12 00:24:17;;;;;;;0.50;0.50;;;;;;;9.65;100.00;96566.44;29395;453;63005;-56
2023/05/12 00:24:48;;;;;;;0.50;0.50;;;;;;;9.65;100.00;96572.69;29395;246;63009;-56
2023/05/12 00:25:19;;;;;;;0.50;0.50;;;;;;;9.65;100.00;96574.59;29394;251;64009;-56
2023/05/12 00:25:50;;;;;;;0.50;0.50;;;;;;;9.65;100.00;96572.69;29395;248;63009;-56
2023/05/12 00:26:22;;;;;;;0.50;0.50;;;;;;;9.65;100.00;96566.44;29395;231;63005;-56
2023/05/12 00:26:53;;;;;;;0.50;0.50;;;;;;;9.65;100.00;96571.87;29394;346;64013;-56
2023/05/12 00:27:30;;;;;;;0.40;0.40;;;;;;;9.64;100.00;96570.25;29395;378;63005;-57
2023/05/12 00:28:03;;;;;;;0.50;0.50;;;;;;;9.64;100.00;96568.34;29395;261;63015;-55
2023/05/12 00:28:34;;;;;;;0.50;0.50;;;;;;;9.64;100.00;96575.69;29395;488;63004;-56
2023/05/12 00:29:06;;;;;;;0.50;0.50;;;;;;;9.62;100.00;96572.47;29395;332;63009;-56
2023/05/12 00:29:37;;;;;;;0.50;0.50;;;;;;;9.62;100.00;96567.03;29394;238;64009;-56
2023/05/12 00:30:09;;;;;;;0.50;0.50;;;;;;;9.61;100.00;96570.84;29395;205;63009;-56
2023/05/12 00:30:40;;;;;;;0.50;0.50;;;;;;;9.61;100.00;96570.84;29395;366;63004;-56
2023/05/12 00:31:12;;;;;;;0.50;0.50;;;;;;;9.59;100.00;96567.62;29395;196;63008;-56
2023/05/12 00:31:44;;;;;;;0.50;0.50;;;;;;;9.59;100.00;96565.72;29395;198;63005;-56
2023/05/12 00:32:15;;;;;;;0.50;0.50;;;;;;;9.59;100.00;96573.03;29395;245;63009;-56
2023/05/12 00:32:48;;;;;;;0.50;0.50;;;;;;;9.59;100.00;96573.03;29395;198;63005;-56
2023/05/12 00:33:19;;;;;;;1.08;1.08;;;;;;;9.58;100.00;96571.44;29395;198;63028;-56
2023/05/12 00:33:51;;;;;;;0.50;0.50;;;;;;;9.55;100.00;96566.59;29395;436;63005;-56
2023/05/12 00:34:23;;;;;;;0.50;0.50;;;;;;;9.54;100.00;96570.41;29395;354;63009;-57
2023/05/12 00:34:55;;;;;;;0.50;0.50;;;;;;;9.54;100.00;96570.41;29394;199;64009;-56
2023/05/12 00:35:27;;;;;;;0.50;0.50;;;;;;;9.54;100.00;96570.41;29395;353;63004;-56
2023/05/12 00:36:03;;;;;;;0.50;0.50;;;;;;;9.55;100.00;96569.31;29395;209;63004;-56
2023/05/12 00:36:34;;;;;;;0.50;0.50;;;;;;;9.56;100.00;96573.63;29395;216;63009;-57
2023/05/12 00:37:06;;;;;;;0.50;0.50;;;;;;;9.55;100.00;96572.81;29395;485;63013;-55
2023/05/12 00:37:37;;;;;;;0.50;0.50;;;;;;;9.55;100.00;96569.31;29394;204;64013;-56
2023/05/12 00:38:09;;;;;;;0.40;0.40;;;;;;;9.56;100.00;96570.91;29395;216;63004;-55
2023/05/12 00:38:40;;;;;;;0.50;0.50;;;;;;;9.55;100.00;96567.41;29394;247;64008;-56
2023/05/12 00:39:12;;;;;;;0.50;0.50;;;;;;;9.55;100.00;96567.41;29395;263;63004;-56
2023/05/12 00:39:43;;;;;;;0.50;0.50;;;;;;;9.56;100.00;96568.22;29395;225;63009;-57
2023/05/12 00:40:14;;;;;;;0.50;0.50;;;;;;;9.54;100.00;96570.41;29395;271;63005;-56
2023/05/12 00:40:46;;;;;;;0.50;0.50;;;;;;;9.54;100.00;96571.22;29395;197;63009;-56
2023/05/12 00:41:17;;;;;;;0.50;0.50;;;;;;;9.54;100.00;96565.00;29395;298;63005;-56
2023/05/12 00:41:56;;;;;;;0.50;0.50;;;;;;;9.55;100.00;96572.00;29395;250;63009;-56
2023/05/12 00:42:28;;;;;;;0.40;0.40;;;;;;;9.55;100.00;96566.59;29395;248;63005;-56
2023/05/12 00:42:59;;;;;;;0.50;0.50;;;;;;;9.54;100.00;96567.69;29394;214;64013;-56
2023/05/12 00:43:30;;;;;;;0.50;0.50;;;;;;;9.55;100.00;96566.59;29395;238;63004;-56
2023/05/12 00:44:02;;;;;;;0.50;0.50;;;;;;;9.54;100.00;96565.00;29395;257;63009;-56
2023/05/12 00:44:34;;;;;;;0.50;0.50;;;;;;;9.54;100.00;96565.78;29395;223;63004;-56
2023/05/12 00:45:06;;;;;;;0.50;0.50;;;;;;;9.54;100.00;96565.78;29395;214;63024;-56
2023/05/12 00:45:38;;;;;;;0.50;0.50;;;;;;;9.54;100.00;96571.22;29395;416;63004;-56
2023/05/12 00:46:10;;;;;;;0.80;0.80;;;;;;;9.55;100.00;96569.31;29395;232;63009;-56
2023/05/12 00:46:42;;;;;;;0.47;0.47;;;;;;;9.54;100.00;96565.78;29395;341;63005;-56
2023/05/12 00:47:13;;;;;;;0.45;0.45;;;;;;;9.54;100.00;96565.00;29395;528;63009;-56
2023/05/12 00:47:49;;;;;;;0.50;0.50;;;;;;;9.55;100.00;96566.59;29395;274;63005;-56
2023/05/12 00:48:20;;;;;;;0.40;0.40;;;;;;;9.57;100.00;96569.81;29394;212;64013;-56
2023/05/12 00:48:52;;;;;;;0.40;0.40;;;;;;;9.57;100.00;96567.09;29395;256;63005;-56
2023/05/12 00:49:26;;;;;;;0.50;0.50;;;;;;;9.58;100.00;96561.41;29395;197;63009;-55
2023/05/12 00:49:58;;;;;;;0.50;0.50;;;;;;;9.59;100.00;96573.03;29395;333;63020;-56
2023/05/12 00:50:29;;;;;;;0.50;0.50;;;;;;;9.59;100.00;96564.91;29395;338;63019;-56
2023/05/12 00:51:03;;;;;;;0.50;0.50;;;;;;;9.59;100.00;96567.62;29395;212;63004;-55
2023/05/12 00:51:34;;;;;;;0.47;0.47;;;;;;;9.58;100.00;96560.59;29395;251;63009;-56
2023/05/12 00:52:06;;;;;;;0.50;0.50;;;;;;;9.59;100.00;96567.62;29395;231;63008;-57
2023/05/12 00:52:37;;;;;;;0.50;0.50;;;;;;;9.58;100.00;96560.59;29395;250;63009;-56
2023/05/12 00:53:08;;;;;;;0.50;0.50;;;;;;;9.59;100.00;96573.03;29394;336;64008;-55
2023/05/12 00:53:41;;;;;;;0.50;0.50;;;;;;;9.59;100.00;96563.00;29395;203;63009;-56
2023/05/12 00:54:12;;;;;;;0.50;0.50;;;;;;;9.59;100.00;96567.62;29395;246;63005;-56
2023/05/12 00:54:44;;;;;;;0.47;0.47;;;;;;;9.58;100.00;96569.53;29395;483;63009;-56
2023/05/12 00:55:16;;;;;;;0.50;0.50;;;;;;;9.58;100.00;96571.44;29395;207;63005;-56
2023/05/12 00:55:47;;;;;;;0.50;0.50;;;;;;;9.58;100.00;96571.44;29395;214;63009;-56
2023/05/12 00:56:19;;;;;;;0.50;0.50;;;;;;;9.57;100.00;96570.63;29395;207;63005;-57
2023/05/12 00:56:51;;;;;;;0.50;0.50;;;;;;;9.58;100.00;96566.00;29395;216;63009;-55
2023/05/12 00:57:24;;;;;;;0.50;0.50;;;;;;;9.58;100.00;96574.13;29395;269;63005;-56
2023/05/12 00:57:55;;;;;;;0.50;0.50;;;;;;;9.58;100.00;96561.41;29395;247;63009;-56
2023/05/12 00:58:26;;;;;;;0.50;0.50;;;;;;;9.59;100.00;96571.13;29394;237;64009;-55
2023/05/12 01:10:36;;;;;;;0.53;0.53;;;;;;;9.56;100.00;96563.59;88122;199;64004;-54
2023/05/12 01:11:07;;;;;;;0.50;0.50;;;;;;;9.56;100.00;96562.78;29394;220;64009;-56
2023/05/12 01:11:38;;;;;;;0.50;0.50;;;;;;;9.55;100.00;96566.59;29395;257;63005;-56
2023/05/12 01:12:09;;;;;;;0.50;0.50;;;;;;;9.55;100.00;96566.59;29395;230;63009;-56
2023/05/12 01:12:44;;;;;;;0.50;0.50;;;;;;;9.54;100.00;96563.09;29395;491;63005;-55
2023/05/12 01:13:15;;;;;;;0.50;0.50;;;;;;;9.55;100.00;96566.59;29395;289;63009;-57
2023/05/12 01:13:47;;;;;;;0.50;0.50;;;;;;;9.54;100.00;96571.22;29395;374;63004;-55
2023/05/12 01:14:18;;;;;;;0.50;0.50;;;;;;;9.55;100.00;96572.81;29395;417;63009;-56
2023/05/12 01:14:52;;;;;;;0.50;0.50;;;;;;;9.55;100.00;96569.31;29395;224;63004;-56
2023/05/12 01:15:24;;;;;;;0.50;0.50;;;;;;;9.57;100.00;96564.41;29395;262;63009;-56
2023/05/12 01:15:59;;;;;;;0.50;0.50;;;;;;;9.56;100.00;96569.00;29395;224;63004;-56
2023/05/12 01:16:37;;;;;;;0.50;0.50;;;;;;;9.56;100.00;96569.00;29394;272;64013;-56
2023/05/12 01:17:14;;;;;;;0.50;0.50;;;;;;;9.56;100.00;96563.59;29395;268;63005;-56
2023/05/12 01:18:01;;;;;;;0.50;0.50;;;;;;;9.57;100.00;96564.41;29395;245;63009;-57
2023/05/12 01:18:35;;;;;;;0.50;0.50;;;;;;;9.58;100.00;96569.53;29394;245;64009;-56
2023/05/12 01:19:14;;;;;;;0.50;0.50;;;;;;;9.58;100.00;96572.22;29395;238;63009;-56
2023/05/12 01:19:52;;;;;;;0.50;0.50;;;;;;;9.58;100.00;96568.72;29395;208;63005;-55
2023/05/12 01:20:26;;;;;;;0.50;0.50;;;;;;;9.58;100.00;96572.22;29395;216;63009;-56
2023/05/12 01:20:59;;;;;;;0.50;0.50;;;;;;;9.59;100.00;96567.62;29395;255;63005;-56
2023/05/12 01:21:30;;;;;;;0.50;0.50;;;;;;;9.59;100.00;96562.22;29395;320;63009;-56
2023/05/12 01:22:02;;;;;;;0.50;0.50;;;;;;;9.59;100.00;96570.34;29395;408;63004;-56
2023/05/12 01:22:34;;;;;;;0.50;0.50;;;;;;;9.58;100.00;96566.81;29395;202;63009;-55
2023/05/12 01:23:06;;;;;;;0.50;0.50;;;;;;;9.59;100.00;96562.22;29395;509;63004;-56
2023/05/12 01:23:43;;;;;;;0.50;0.50;;;;;;;9.58;100.00;96566.00;29394;202;64013;-56
2023/05/12 01:24:19;;;;;;;0.50;0.50;;;;;;;9.59;100.00;96562.22;29395;212;63004;-56
2023/05/12 01:24:56;;;;;;;0.50;0.50;;;;;;;9.58;100.00;96566.00;29395;317;63027;-56
2023/05/12 01:25:32;;;;;;;0.50;0.50;;;;;;;9.56;100.00;96565.50;29395;253;63005;-56
2023/05/12 01:26:07;;;;;;;0.50;0.50;;;;;;;9.56;100.00;96568.22;29395;243;63009;-56
2023/05/12 01:26:39;;;;;;;0.40;0.40;;;;;;;9.55;100.00;96566.59;29395;232;63005;-56
2023/05/12 01:27:13;;;;;;;0.50;0.50;;;;;;;9.55;100.00;96564.69;29395;202;63009;-56
2023/05/12 01:27:45;;;;;;;0.50;0.50;;;;;;;9.56;100.00;96560.09;29395;472;63005;-56
2023/05/12 01:28:17;;;;;;;0.50;0.50;;;;;;;9.57;100.00;96569.81;29395;226;63009;-56
2023/05/12 01:28:50;;;;;;;0.50;0.50;;;;;;;9.57;100.00;96565.22;29394;220;64009;-56
2023/05/12 01:29:22;;;;;;;0.50;0.50;;;;;;;9.58;100.00;96560.59;29395;437;63009;-56
2023/05/12 01:29:57;;;;;;;0.50;0.50;;;;;;;9.58;100.00;96561.41;29394;303;64004;-55
2023/05/12 01:30:29;;;;;;;0.50;0.50;;;;;;;9.58;100.00;96566.81;29395;306;63004;-57
2023/05/12 01:31:02;;;;;;;0.45;0.45;;;;;;;9.58;100.00;96560.59;29395;354;63004;-57
2023/05/12 01:31:34;;;;;;;0.50;0.50;;;;;;;9.58;100.00;96566.00;29395;240;63008;-56
2023/05/12 01:32:06;;;;;;;0.47;0.47;;;;;;;9.59;100.00;96567.62;29395;198;63004;-56
2023/05/12 01:32:39;;;;;;;0.50;0.50;;;;;;;9.58;100.00;96564.09;29395;296;63009;-55
2023/05/12 01:33:10;;;;;;;0.50;0.50;;;;;;;9.61;100.00;96565.44;29395;255;63005;-55
2023/05/12 01:33:42;;;;;;;0.50;0.50;;;;;;;9.61;100.00;96562.72;29395;261;63009;-56
2023/05/12 01:34:17;;;;;;;0.50;0.50;;;;;;;9.62;100.00;96556.19;29394;267;64009;-56
2023/05/12 01:34:49;;;;;;;0.50;0.50;;;;;;;9.62;100.00;96564.31;29395;411;63018;-56
2023/05/12 01:35:20;;;;;;;0.50;0.50;;;;;;;9.62;100.00;96565.13;29395;213;63005;-56
2023/05/12 01:35:51;;;;;;;0.40;0.40;;;;;;;9.62;100.00;96562.44;29395;212;63009;-56
2023/05/12 01:36:23;;;;;;;0.50;0.50;;;;;;;9.65;100.00;96566.44;29395;332;63018;-56
2023/05/12 01:36:54;;;;;;;0.50;0.50;;;;;;;9.64;100.00;96565.66;29395;417;63009;-56
2023/05/12 01:37:25;;;;;;;0.50;0.50;;;;;;;9.65;100.00;96569.16;29395;219;63004;-56
2023/05/12 01:37:56;;;;;;;0.50;0.50;;;;;;;9.64;100.00;96559.44;29395;399;63009;-56
2023/05/12 01:38:28;;;;;;;0.50;0.50;;;;;;;9.65;100.00;96555.63;29395;227;63004;-54
2023/05/12 01:38:59;;;;;;;0.50;0.50;;;;;;;9.64;100.00;96564.84;29395;202;63008;-56
2023/05/12 01:39:30;;;;;;;0.50;0.50;;;;;;;9.64;100.00;96562.13;29394;229;64008;-55
2023/05/12 01:40:03;;;;;;;0.50;0.50;;;;;;;9.65;100.00;96561.03;29395;267;63009;-55
2023/05/12 01:40:34;;;;;;;0.50;0.50;;;;;;;9.64;100.00;96556.72;29395;221;63005;-55
2023/05/12 01:41:05;;;;;;;0.40;0.40;;;;;;;9.62;100.00;96554.31;29395;485;63015;-55
2023/05/12 01:41:36;;;;;;;0.50;0.50;;;;;;;9.62;100.00;96561.63;29395;210;63005;-54
2023/05/12 01:42:07;;;;;;;0.50;0.50;;;;;;;9.64;100.00;96564.84;29395;234;63009;-55
2023/05/12 01:42:40;;;;;;;0.50;0.50;;;;;;;9.62;100.00;96562.44;29395;199;63005;-56
2023/05/12 01:43:12;;;;;;;0.50;0.50;;;;;;;9.62;100.00;96559.72;29395;418;63009;-56
2023/05/12 01:43:43;;;;;;;0.50;0.50;;;;;;;9.62;100.00;96561.63;29395;239;63005;-56
2023/05/12 01:44:14;;;;;;;0.80;0.80;;;;;;;9.61;100.00;96568.94;29395;279;63009;-56
2023/05/12 01:44:45;;;;;;;0.50;0.50;;;;;;;9.59;100.00;96560.31;29394;235;64009;-56
2023/05/12 01:45:17;;;;;;;0.50;0.50;;;;;;;9.59;100.00;96563.00;29395;413;63009;-57
2023/05/12 01:45:48;;;;;;;0.50;0.50;;;;;;;9.59;100.00;96564.91;29395;337;63004;-56
2023/05/12 01:46:19;;;;;;;0.50;0.50;;;;;;;9.59;100.00;96562.22;29395;231;63009;-56
2023/05/12 01:46:51;;;;;;;0.50;0.50;;;;;;;9.59;100.00;96562.22;29395;507;63004;-56
2023/05/12 01:47:22;;;;;;;0.50;0.50;;;;;;;9.58;100.00;96557.88;29395;319;63009;-56
2023/05/12 01:47:53;;;;;;;0.50;0.50;;;;;;;9.57;100.00;96565.22;29395;255;63016;-56
2023/05/12 01:48:25;;;;;;;0.50;0.50;;;;;;;9.56;100.00;96560.88;29395;233;63023;-56
2023/05/12 01:48:56;;;;;;;0.50;0.50;;;;;;;9.57;100.00;96556.28;29395;269;63005;-56
2023/05/12 01:49:27;;;;;;;0.50;0.50;;;;;;;9.57;100.00;96556.28;29395;227;63009;-56
2023/05/12 01:49:59;;;;;;;0.50;0.50;;;;;;;9.58;100.00;96560.59;29394;306;64009;-55
2023/05/12 01:50:30;;;;;;;0.50;0.50;;;;;;;9.57;100.00;96567.09;29394;278;64013;-56
2023/05/12 01:51:02;;;;;;;0.50;0.50;;;;;;;9.57;100.00;96561.69;29395;207;63000;-57
2023/05/12 01:51:33;;;;;;;0.50;0.50;;;;;;;9.55;100.00;96563.87;29395;250;63009;-56
2023/05/12 01:52:05;;;;;;;0.50;0.50;;;;;;;9.55;100.00;96558.47;29395;282;63004;-55
2023/05/12 01:52:37;;;;;;;0.50;0.50;;;;;;;9.55;100.00;96555.75;29395;212;63009;-56
2023/05/12 01:53:09;;;;;;;0.50;0.50;;;;;;;9.56;100.00;96562.78;29395;204;63004;-56
2023/05/12 01:53:41;;;;;;;0.50;0.50;;;;;;;9.55;100.00;96561.97;29395;235;63009;-55
2023/05/12 01:54:12;;;;;;;0.50;0.50;;;;;;;9.56;100.00;96560.09;29394;271;64008;-56
2023/05/12 01:54:43;;;;;;;0.50;0.50;;;;;;;9.55;100.00;96555.75;29395;383;63008;-56
2023/05/12 01:55:16;;;;;;;0.50;0.50;;;;;;;9.54;100.00;96562.28;29395;198;63005;-57
2023/05/12 01:55:47;;;;;;;0.50;0.50;;;;;;;9.53;100.00;96557.97;29395;221;63009;-55
2023/05/12 01:56:18;;;;;;;0.50;0.50;;;;;;;9.53;100.00;96563.37;29394;198;64009;-56
2023/05/12 01:56:50;;;;;;;0.50;0.50;;;;;;;9.52;100.00;96557.16;29395;215;63009;-56
2023/05/12 01:57:21;;;;;;;0.50;0.50;;;;;;;9.53;100.00;96566.09;29394;337;64009;-55
2023/05/12 01:57:52;;;;;;;0.50;0.50;;;;;;;9.52;100.00;96557.16;29395;258;63009;-56
2023/05/12 01:58:24;;;;;;;0.50;0.50;;;;;;;9.53;100.00;96563.37;29394;282;64009;-56
2023/05/12 01:58:55;;;;;;;0.50;0.50;;;;;;;9.53;100.00;96560.66;29395;219;63009;-56
2023/05/12 01:59:27;;;;;;;0.50;0.50;;;;;;;9.53;100.00;96564.19;29395;197;63004;-56
2023/05/12 01:59:59;;;;;;;0.50;0.50;;;;;;;9.53;100.00;96555.25;29395;235;63009;-56
2023/05/12 02:00:31;;;;;;;0.50;0.50;;;;;;;9.53;100.00;96566.88;29395;202;63004;-56
2023/05/12 02:01:03;;;;;;;0.50;0.50;;;;;;;9.52;100.00;96561.75;29395;331;63009;-56
2023/05/12 02:01:34;;;;;;;0.50;0.50;;;;;;;9.52;100.00;96568.00;29394;279;64018;-56
2023/05/12 02:02:06;;;;;;;0.50;0.50;;;;;;;9.52;100.00;96559.06;29395;246;63008;-56
2023/05/12 02:02:38;;;;;;;0.50;0.50;;;;;;;9.52;100.00;96559.06;29394;229;64009;-55
2023/05/12 02:03:09;;;;;;;0.50;0.50;;;;;;;9.53;100.00;96560.66;29395;223;63009;-56
2023/05/12 02:03:41;;;;;;;0.50;0.50;;;;;;;9.52;100.00;96557.16;29395;432;63005;-56
2023/05/12 02:04:12;;;;;;;0.50;0.50;;;;;;;9.53;100.00;96563.37;29395;490;63009;-56
2023/05/12 02:04:47;;;;;;;0.50;0.50;;;;;;;9.53;100.00;96563.37;29395;248;63005;-56
2023/05/12 02:05:20;;;;;;;0.50;0.50;;;;;;;9.53;100.00;96563.37;29395;205;63009;-56
2023/05/12 02:05:51;;;;;;;0.50;0.50;;;;;;;9.53;100.00;96563.37;29395;219;63004;-56
2023/05/12 02:06:22;;;;;;;0.50;0.50;;;;;;;9.51;100.00;96558.25;29395;236;63009;-56
2023/05/12 02:06:54;;;;;;;0.50;0.50;;;;;;;9.52;100.00;96561.75;29395;221;63004;-56
2023/05/12 02:07:25;;;;;;;0.50;0.50;;;;;;;9.51;100.00;96563.66;29395;258;63009;-56
2023/05/12 02:07:56;;;;;;;0.50;0.50;;;;;;;9.51;100.00;96560.97;29394;329;64009;-56
2023/05/12 02:08:29;;;;;;;1.30;1.30;;;;;;;9.52;100.00;96567.19;29395;224;63008;-56
2023/05/12 02:09:00;;;;;;;0.50;0.50;;;;;;;9.53;100.00;96563.37;29395;444;63004;-56
2023/05/12 02:09:31;;;;;;;0.50;0.50;;;;;;;9.52;100.00;96567.19;29395;212;63008;-56
2023/05/12 02:10:03;;;;;;;0.50;0.50;;;;;;;9.50;100.00;96564.75;29395;316;63005;-56
2023/05/12 02:10:34;;;;;;;0.50;0.50;;;;;;;9.50;100.00;96563.97;29395;427;63009;-55
2023/05/12 02:11:09;;;;;;;0.50;0.50;;;;;;;9.51;100.00;96565.56;29395;347;63005;-56
2023/05/12 02:11:41;;;;;;;0.50;0.50;;;;;;;9.51;100.00;96560.97;29394;240;64013;-56
2023/05/12 02:12:12;;;;;;;0.50;0.50;;;;;;;9.53;100.00;96566.09;29394;202;64005;-55
2023/05/12 02:12:43;;;;;;;0.50;0.50;;;;;;;9.54;100.00;96562.28;29395;235;63009;-56
2023/05/12 02:13:15;;;;;;;0.50;0.50;;;;;;;9.54;100.00;96565.00;29395;251;63004;-56
2023/05/12 02:13:46;;;;;;;0.50;0.50;;;;;;;9.53;100.00;96564.19;29395;250;63009;-57
2023/05/12 02:14:18;;;;;;;0.50;0.50;;;;;;;9.53;100.00;96563.37;29395;212;63004;-56
2023/05/12 02:14:49;;;;;;;0.50;0.50;;;;;;;9.53;100.00;96569.59;29395;469;63009;-56
2023/05/12 02:15:22;;;;;;;0.50;0.50;;;;;;;9.54;100.00;96565.78;29395;197;63004;-55
2023/05/12 02:15:53;;;;;;;0.50;0.50;;;;;;;9.54;100.00;96570.41;29395;343;63008;-56
2023/05/12 02:16:24;;;;;;;0.50;0.50;;;;;;;9.54;100.00;96562.28;29395;335;63004;-56
2023/05/12 02:16:56;;;;;;;0.50;0.50;;;;;;;9.53;100.00;96561.47;29394;309;64014;-55
2023/05/12 02:17:27;;;;;;;0.50;0.50;;;;;;;9.55;100.00;96566.59;29395;249;63005;-55
2023/05/12 02:17:58;;;;;;;0.50;0.50;;;;;;;9.53;100.00;96558.75;29395;333;63009;-56
2023/05/12 02:18:30;;;;;;;0.50;0.50;;;;;;;9.54;100.00;96562.28;29395;199;63005;-57
2023/05/12 02:19:01;;;;;;;0.50;0.50;;;;;;;9.54;100.00;96559.56;29395;277;63009;-57
2023/05/12 02:19:32;;;;;;;0.50;0.50;;;;;;;9.56;100.00;96554.66;29395;208;63005;-57
2023/05/12 02:20:05;;;;;;;0.43;0.43;;;;;;;9.56;100.00;96562.78;29395;200;63009;-56
2023/05/12 02:20:36;;;;;;;0.50;0.50;;;;;;;9.58;100.00;96563.31;29395;280;63005;-57
2023/05/12 02:21:07;;;;;;;0.50;0.50;;;;;;;9.58;100.00;96561.41;29394;480;64013;-56
2023/05/12 02:21:38;;;;;;;0.50;0.50;;;;;;;9.58;100.00;96566.00;29395;215;63007;-56
2023/05/12 02:22:09;;;;;;;0.50;0.50;;;;;;;9.59;100.00;96559.50;29395;246;63009;-55
2023/05/12 02:22:40;;;;;;;0.50;0.50;;;;;;;9.58;100.00;96560.59;29395;197;63004;-56
2023/05/12 02:23:11;;;;;;;0.50;0.50;;;;;;;9.57;100.00;96558.97;29395;197;63009;-55
2023/05/12 02:23:43;;;;;;;0.50;0.50;;;;;;;9.58;100.00;96563.31;29395;244;63004;-57
2023/05/12 02:24:15;;;;;;;0.50;0.50;;;;;;;9.58;100.00;96561.41;29395;256;63009;-57
2023/05/12 02:24:47;;;;;;;0.50;0.50;;;;;;;9.58;100.00;96555.97;29395;197;63005;-55
2023/05/12 02:25:18;;;;;;;0.50;0.50;;;;;;;9.59;100.00;96563.00;29395;219;63009;-56
2023/05/12 02:25:49;;;;;;;0.50;0.50;;;;;;;9.59;100.00;96556.78;29395;265;63005;-55
2023/05/12 02:26:21;;;;;;;0.50;0.50;;;;;;;9.60;100.00;96563.81;29394;229;64013;-55
2023/05/12 02:26:52;;;;;;;0.50;0.50;;;;;;;9.60;100.00;96563.81;29395;281;63005;-56
2023/05/12 02:27:23;;;;;;;0.50;0.50;;;;;;;9.59;100.00;96557.59;29394;233;64013;-56
2023/05/12 02:27:54;;;;;;;0.50;0.50;;;;;;;9.61;100.00;96554.59;29394;259;64005;-56
2023/05/12 02:28:26;;;;;;;0.50;0.50;;;;;;;9.61;100.00;96554.59;29395;217;63009;-57
2023/05/12 02:28:57;;;;;;;0.50;0.50;;;;;;;9.60;100.00;96561.09;29395;248;63004;-56
2023/05/12 02:29:29;;;;;;;0.50;0.50;;;;;;;9.60;100.00;96558.41;29395;296;63025;-56
2023/05/12 02:30:00;;;;;;;0.50;0.50;;;;;;;9.60;100.00;96558.41;29395;376;63004;-55
2023/05/12 02:30:34;;;;;;;0.50;0.50;;;;;;;9.60;100.00;96564.63;29395;204;63009;-56
2023/05/12 02:31:05;;;;;;;0.50;0.50;;;;;;;9.60;100.00;96559.19;29395;202;63004;-56
2023/05/12 02:31:37;;;;;;;0.50;0.50;;;;;;;9.60;100.00;96552.97;29395;229;63020;-56
2023/05/12 02:32:08;;;;;;;0.50;0.50;;;;;;;9.60;100.00;96556.50;29395;236;63008;-56
2023/05/12 02:32:40;;;;;;;0.50;0.50;;;;;;;9.61;100.00;96562.72;29394;258;64014;-56
2023/05/12 02:33:11;;;;;;;0.50;0.50;;;;;;;9.62;100.00;96558.91;29395;408;63005;-56
2023/05/12 02:33:42;;;;;;;0.50;0.50;;;;;;;9.62;100.00;96557.00;29394;202;64013;-57
2023/05/12 02:34:14;;;;;;;0.50;0.50;;;;;;;9.62;100.00;96553.50;29395;284;63005;-56
2023/05/12 02:34:46;;;;;;;0.50;0.50;;;;;;;9.62;100.00;96557.00;29395;370;63009;-56
2023/05/12 02:35:17;;;;;;;0.50;0.50;;;;;;;9.62;100.00;96556.19;29395;275;63011;-57
2023/05/12 02:35:48;;;;;;;0.50;0.50;;;;;;;9.64;100.00;96554.00;29395;274;63009;-56
2023/05/12 02:36:20;;;;;;;0.50;0.50;;;;;;;9.65;100.00;96558.31;29395;242;63004;-56
2023/05/12 02:36:52;;;;;;;0.50;0.50;;;;;;;9.65;100.00;96555.63;29395;257;63009;-56
2023/05/12 02:37:26;;;;;;;0.50;0.50;;;;;;;9.66;100.00;96559.94;29395;218;63004;-56
2023/05/12 02:37:57;;;;;;;0.50;0.50;;;;;;;9.65;100.00;96563.75;29395;224;63009;-55
2023/05/12 02:38:28;;;;;;;0.50;0.50;;;;;;;9.65;100.00;96561.03;29395;222;63004;-56
2023/05/12 02:39:00;;;;;;;0.50;0.50;;;;;;;9.66;100.00;96557.22;29394;198;64013;-56
2023/05/12 02:39:31;;;;;;;0.50;0.50;;;;;;;9.66;100.00;96557.22;29395;209;63005;-56
2023/05/12 02:40:03;;;;;;;0.50;0.50;;;;;;;9.66;100.00;96557.22;29395;207;63009;-56
2023/05/12 02:40:35;;;;;;;0.40;0.40;;;;;;;9.64;100.00;96564.84;29395;425;63005;-56
2023/05/12 02:41:07;;;;;;;0.50;0.50;;;;;;;9.62;100.00;96556.19;29395;432;63009;-56
2023/05/12 02:41:38;;;;;;;0.50;0.50;;;;;;;9.62;100.00;96553.50;29395;198;63005;-56
2023/05/12 02:42:11;;;;;;;0.50;0.50;;;;;;;9.59;100.00;96551.38;29395;408;63009;-57
2023/05/12 02:42:44;;;;;;;0.50;0.50;;;;;;;9.61;100.00;96555.41;29395;427;63005;-56
2023/05/12 02:43:16;;;;;;;0.50;0.50;;;;;;;9.60;100.00;96555.69;29395;560;63016;-56
2023/05/12 02:43:47;;;;;;;0.50;0.50;;;;;;;9.59;100.00;96557.59;29395;213;63004;-56
2023/05/12 02:44:21;;;;;;;0.50;0.50;;;;;;;9.59;100.00;96551.38;29394;309;64013;-56